aviador You're here:

ZBTJ Decoded Metar

TIANJIN in CHINA
Report Time2017-05-26 12:30:00
UTC Time2017-05-26 13:05:28
Flight Rules vfr VFR
Wind110° at 6 kt
W.Decomp.*RWY 16: 4.3 kt HW 4.2 kt LCW
W.Rank110° ranks 18
Current wind is below 110° avg. (6.9)
Visibility9999 m
Phenomena:N/A
Clouds:N/A
Expected CloudBase > 4,000 ft AGL from Temp-Dew spread
CeilingNone
Temp22°C (ISA +7)
Dew Point12°C (53% RH)
AAT20.5°C
QNH1007 hPa
Density Alt1,220 ft
Elevation10 ft
Report Wrong Elevation
Raw Report
METAR ZBTJ 261230Z 11003MPS CAVOK 22/12 Q1007 NOSIG=

Extra information for ZBTJ:More info

Metar Taf Metar & Taf Last 4 Metars F.Rules Stats Wind Profile Meteogram Temp Stats Airport Information Weather charts Add Link Nearby VenuesMetar ALERT Operation Metar Decoded Social comments